createdAt,value
2023-01-02T00:02:28.231Z,33.80
2023-01-02T00:05:01.399Z,32.80
2023-01-02T00:07:34.283Z,35.20
2023-01-02T00:10:07.906Z,36.60
2023-01-02T00:12:40.865Z,35.60
2023-01-02T00:15:14.212Z,33.50
2023-01-02T00:17:47.416Z,32.50
2023-01-02T00:20:20.467Z,33.00
2023-01-02T00:22:53.340Z,30.80
2023-01-02T00:25:26.321Z,31.60
2023-01-02T00:27:59.462Z,30.60
2023-01-02T00:30:38.281Z,34.40
2023-01-02T00:33:12.919Z,36.60
2023-01-02T00:35:45.819Z,36.40
2023-01-02T00:38:19.900Z,36.30
2023-01-02T00:40:52.990Z,37.50
2023-01-02T00:43:26.005Z,38.50
2023-01-02T00:45:59.564Z,37.10
2023-01-02T00:48:32.413Z,35.70
2023-01-02T00:51:05.495Z,37.60
2023-01-02T00:53:38.565Z,34.80
2023-01-02T00:56:11.976Z,33.30
2023-01-02T00:58:45.373Z,32.70
2023-01-02T01:01:18.914Z,31.80
2023-01-02T01:03:52.085Z,30.20
2023-01-02T01:06:24.952Z,31.10
2023-01-02T01:08:58.213Z,35.60
2023-01-02T01:11:32.283Z,32.90
2023-01-02T01:14:05.372Z,35.70
2023-01-02T01:16:38.481Z,34.10
2023-01-02T01:19:11.696Z,33.70
2023-01-02T01:21:44.965Z,35.50
2023-01-02T01:24:18.382Z,34.50
2023-01-02T01:26:52.691Z,31.80
2023-01-02T01:29:26.007Z,34.60
2023-01-02T01:31:59.060Z,36.20
2023-01-02T01:34:32.115Z,40.40
2023-01-02T01:37:05.017Z,37.50
2023-01-02T01:39:37.979Z,38.80
2023-01-02T01:42:16.819Z,38.10
2023-01-02T01:44:58.881Z,39.30
2023-01-02T01:47:44.376Z,39.00
2023-01-02T01:50:25.253Z,36.80
2023-01-02T01:53:06.700Z,36.50
2023-01-02T01:55:59.259Z,35.20
2023-01-02T01:58:43.782Z,33.90
2023-01-02T02:01:18.928Z,30.70
2023-01-02T02:03:53.340Z,29.20
2023-01-02T02:06:26.453Z,28.50
2023-01-02T02:09:14.609Z,30.10
2023-01-02T02:11:48.679Z,28.50
2023-01-02T02:14:21.494Z,28.90
2023-01-02T02:17:05.495Z,29.70
2023-01-02T02:19:59.254Z,31.90
2023-01-02T02:22:52.369Z,31.40
2023-01-02T02:25:33.730Z,31.70
2023-01-02T02:28:29.490Z,33.70
2023-01-02T02:31:10.239Z,33.40
2023-01-02T02:34:17.139Z,35.00
2023-01-02T02:37:01.144Z,32.80
2023-01-02T02:40:09.682Z,32.20
2023-01-02T02:43:03.040Z,33.40
2023-01-02T02:45:59.455Z,36.20
2023-01-02T02:48:58.386Z,37.50
2023-01-02T02:51:35.774Z,31.40
2023-01-02T02:54:14.756Z,32.30
2023-01-02T02:56:48.686Z,31.30
2023-01-02T02:59:22.477Z,31.30
2023-01-02T03:01:55.051Z,31.30
2023-01-02T03:04:28.256Z,31.40
2023-01-02T03:07:28.054Z,30.90
2023-01-02T03:10:45.709Z,29.90
2023-01-02T03:13:42.129Z,29.00
2023-01-02T03:16:42.874Z,31.30
2023-01-02T03:19:43.521Z,33.70
2023-01-02T03:22:33.712Z,33.70
2023-01-02T03:25:08.315Z,33.10
2023-01-02T03:27:47.557Z,34.20
2023-01-02T03:30:23.357Z,34.40
2023-01-02T03:33:06.680Z,34.70
2023-01-02T03:35:46.877Z,33.30
2023-01-02T03:38:36.011Z,33.10
2023-01-02T03:41:32.728Z,33.50
2023-01-02T03:44:09.071Z,30.60
2023-01-02T03:46:50.952Z,31.50
2023-01-02T03:52:05.564Z,30.40
2023-01-02T03:54:39.926Z,30.90
2023-01-02T03:57:17.551Z,30.70
2023-01-02T03:59:53.089Z,32.30
2023-01-02T04:02:57.820Z,32.10
2023-01-02T04:05:43.028Z,33.60
2023-01-02T04:08:27.071Z,34.30
2023-01-02T04:11:04.072Z,36.10
2023-01-02T04:13:44.388Z,37.40
2023-01-02T04:16:23.095Z,38.50
2023-01-02T04:19:09.997Z,37.60
2023-01-02T04:21:45.318Z,35.30
2023-01-02T04:24:29.251Z,32.40
2023-01-02T04:27:12.240Z,31.20
2023-01-02T04:29:45.131Z,28.10
2023-01-02T04:32:28.148Z,30.60
2023-01-02T04:35:02.502Z,29.20
2023-01-02T04:37:43.493Z,29.40
2023-01-02T04:40:24.121Z,27.10
2023-01-02T04:42:57.228Z,28.10
2023-01-02T04:45:30.062Z,26.90
2023-01-02T04:48:03.189Z,29.90
2023-01-02T04:50:36.187Z,30.20
2023-01-02T04:53:11.134Z,30.70
2023-01-02T04:55:44.472Z,30.90
2023-01-02T04:58:17.961Z,32.50
2023-01-02T05:00:50.970Z,31.90
2023-01-02T05:03:24.061Z,30.00
2023-01-02T05:06:06.095Z,29.90
2023-01-02T05:08:39.954Z,28.70
2023-01-02T05:11:22.314Z,28.80
2023-01-02T05:13:55.087Z,30.10
2023-01-02T05:16:27.879Z,29.30
2023-01-02T05:19:00.804Z,29.20
2023-01-02T05:21:52.150Z,29.90
2023-01-02T05:24:25.335Z,30.00
2023-01-02T05:26:58.682Z,31.90
2023-01-02T05:29:32.476Z,32.90
2023-01-02T05:32:05.800Z,33.80
2023-01-02T05:34:38.494Z,32.50
2023-01-02T05:37:11.248Z,32.60
2023-01-02T05:39:44.137Z,32.70
2023-01-02T05:42:16.976Z,31.60
2023-01-02T05:44:51.607Z,29.60
2023-01-02T05:47:24.784Z,29.10
2023-01-02T05:49:57.866Z,29.60
2023-01-02T05:52:30.573Z,28.90
2023-01-02T05:55:03.500Z,27.80
2023-01-02T05:57:36.675Z,28.20
2023-01-02T06:00:10.031Z,30.20
2023-01-02T06:02:48.886Z,26.90
2023-01-02T06:05:22.454Z,28.10
2023-01-02T06:07:55.298Z,28.90
2023-01-02T06:10:28.017Z,28.60
2023-01-02T06:13:00.808Z,29.70
2023-01-02T06:15:33.922Z,29.30
2023-01-02T06:18:07.122Z,31.20
2023-01-02T06:20:40.232Z,31.40
2023-01-02T06:23:13.185Z,29.40
2023-01-02T06:25:46.497Z,27.80
2023-01-02T06:28:19.629Z,29.00
2023-01-02T06:30:52.685Z,27.40
2023-01-02T06:33:25.607Z,25.70
2023-01-02T06:36:02.067Z,25.00
2023-01-02T06:38:34.770Z,24.80
2023-01-02T06:41:08.892Z,25.50
2023-01-02T06:43:48.793Z,25.00
2023-01-02T06:46:23.834Z,25.90
2023-01-02T06:48:57.049Z,24.60
2023-01-02T06:51:30.014Z,22.10
2023-01-02T06:54:02.525Z,26.50
2023-01-02T06:56:35.245Z,27.90
2023-01-02T06:59:07.957Z,28.70
2023-01-02T07:01:41.588Z,28.50
2023-01-02T07:04:20.891Z,26.90
2023-01-02T07:06:53.589Z,28.30
2023-01-02T07:09:26.679Z,25.20
2023-01-02T07:12:02.306Z,24.70
2023-01-02T07:14:34.959Z,27.10
2023-01-02T07:17:07.753Z,27.50
2023-01-02T07:19:40.748Z,29.40
2023-01-02T07:22:13.642Z,25.60
2023-01-02T07:24:46.726Z,23.60
2023-01-02T07:27:19.830Z,26.50
2023-01-02T07:29:52.404Z,26.70
2023-01-02T07:32:27.603Z,28.70
2023-01-02T07:35:00.609Z,28.40
2023-01-02T07:37:33.369Z,29.90
2023-01-02T07:40:06.408Z,28.60
2023-01-02T07:42:39.410Z,31.70
2023-01-02T07:45:12.880Z,33.30
2023-01-02T07:47:46.143Z,33.70
2023-01-02T07:50:19.307Z,31.30
2023-01-02T07:52:52.247Z,31.30
2023-01-02T07:55:25.219Z,28.50
2023-01-02T07:57:58.077Z,27.60
2023-01-02T08:00:31.360Z,28.50
2023-01-02T08:03:04.582Z,28.20
2023-01-02T08:05:37.661Z,26.90
2023-01-02T08:08:10.990Z,28.30
2023-01-02T08:10:45.089Z,29.70
2023-01-02T08:13:18.109Z,31.60
2023-01-02T08:15:51.400Z,28.00
2023-01-02T08:18:24.362Z,29.40
2023-01-02T08:20:58.622Z,30.90
2023-01-02T08:23:31.908Z,30.50
2023-01-02T08:26:07.032Z,28.90
2023-01-02T08:28:41.230Z,30.20
2023-01-02T08:31:23.180Z,30.70
2023-01-02T08:33:56.371Z,28.50
2023-01-02T08:36:29.274Z,29.10
2023-01-02T08:39:02.667Z,29.30
2023-01-02T08:41:40.169Z,30.70
2023-01-02T08:44:13.233Z,28.80
2023-01-02T08:46:46.413Z,32.80
2023-01-02T08:49:19.368Z,30.40
2023-01-02T08:51:52.307Z,32.50
2023-01-02T08:54:25.229Z,31.20
2023-01-02T08:56:58.043Z,32.60
2023-01-02T08:59:30.995Z,33.30
2023-01-02T09:02:04.012Z,35.20
2023-01-02T09:04:36.688Z,34.50
2023-01-02T09:07:09.282Z,35.80
2023-01-02T09:09:42.270Z,33.60
2023-01-02T09:12:15.100Z,33.20
2023-01-02T09:14:47.812Z,31.10
2023-01-02T09:17:20.643Z,31.40
2023-01-02T09:19:53.508Z,30.40
2023-01-02T09:22:26.197Z,32.60
2023-01-02T09:24:59.482Z,32.70
2023-01-02T09:27:32.390Z,31.50
2023-01-02T09:30:05.194Z,34.30
2023-01-02T09:32:37.846Z,36.40
2023-01-02T09:35:11.061Z,33.80
2023-01-02T09:37:44.430Z,32.80
2023-01-02T09:40:17.394Z,31.80
2023-01-02T09:42:52.600Z,30.70
2023-01-02T09:45:25.964Z,29.80
2023-01-02T09:48:01.772Z,30.10
2023-01-02T09:50:34.736Z,29.10
2023-01-02T09:53:07.943Z,27.60
2023-01-02T09:56:08.937Z,28.00
2023-01-02T09:59:04.941Z,26.60
2023-01-02T10:01:57.779Z,27.60
2023-01-02T10:05:05.770Z,28.10
2023-01-02T10:07:50.749Z,30.10
2023-01-02T10:10:39.178Z,36.10
2023-01-02T10:13:14.561Z,32.70
2023-01-02T10:15:50.880Z,35.80
2023-01-02T10:18:32.081Z,36.10
2023-01-02T10:21:23.255Z,31.20
2023-01-02T10:24:04.816Z,29.20
2023-01-02T10:26:43.444Z,24.60
2023-01-02T10:29:19.159Z,25.30
2023-01-02T10:32:18.616Z,25.10
2023-01-02T10:35:12.145Z,23.00
2023-01-02T10:37:45.106Z,21.80
2023-01-02T10:40:17.907Z,23.10
2023-01-02T10:43:00.059Z,25.30
2023-01-02T10:48:04.759Z,24.70
2023-01-02T10:50:50.751Z,27.00
2023-01-02T10:53:37.716Z,26.20
2023-01-02T10:56:22.397Z,28.90
2023-01-02T10:58:55.673Z,26.70
2023-01-02T11:01:28.672Z,24.60
2023-01-02T11:04:01.138Z,29.30
2023-01-02T11:06:39.518Z,26.40
2023-01-02T11:09:26.773Z,26.40
2023-01-02T11:12:12.133Z,28.20
2023-01-02T11:14:45.335Z,27.80
2023-01-02T11:17:24.171Z,25.70
2023-01-02T11:19:58.574Z,30.80
2023-01-02T11:22:39.243Z,32.40
2023-01-02T11:25:26.663Z,32.30
2023-01-02T11:28:03.804Z,29.80
2023-01-02T11:30:49.530Z,28.10
2023-01-02T11:33:31.963Z,31.20
2023-01-02T11:38:57.031Z,24.80
2023-01-02T11:42:13.114Z,24.50
2023-01-02T11:44:58.533Z,23.20
2023-01-02T11:47:38.986Z,27.40
2023-01-02T11:50:27.433Z,27.20
2023-01-02T11:53:16.897Z,28.10
2023-01-02T11:56:06.438Z,26.10
2023-01-02T11:59:26.605Z,28.40
2023-01-02T12:02:06.857Z,26.80
2023-01-02T12:04:40.450Z,26.80
2023-01-02T12:07:30.996Z,24.70
2023-01-02T12:10:27.523Z,26.00
2023-01-02T12:13:27.269Z,26.70
2023-01-02T12:16:23.114Z,28.00
2023-01-02T12:19:24.012Z,26.60
2023-01-02T12:22:21.170Z,28.10
2023-01-02T12:24:56.557Z,25.90
2023-01-02T12:27:44.915Z,30.70
2023-01-02T12:30:22.962Z,29.00
2023-01-02T12:33:16.275Z,29.30
2023-01-02T12:36:10.460Z,29.10
2023-01-02T12:38:57.073Z,27.60
2023-01-02T12:42:01.651Z,23.20
2023-01-02T12:44:59.454Z,25.70
2023-01-02T12:48:04.731Z,24.00
2023-01-02T12:50:48.659Z,29.90
2023-01-02T12:53:23.182Z,30.60
2023-01-02T12:56:12.500Z,27.10
2023-01-02T12:59:26.426Z,26.30
2023-01-02T13:02:26.044Z,27.70
2023-01-02T13:05:06.430Z,28.30
2023-01-02T13:07:49.828Z,22.60
2023-01-02T13:10:26.034Z,25.00
2023-01-02T13:13:04.356Z,26.00
2023-01-02T13:15:42.771Z,24.20
2023-01-02T13:19:00.010Z,26.80
2023-01-02T13:21:54.599Z,28.60
2023-01-02T13:24:28.848Z,25.40
2023-01-02T13:27:02.145Z,29.60
2023-01-02T13:29:46.927Z,25.50
2023-01-02T13:32:31.845Z,30.30
2023-01-02T13:35:06.582Z,27.10
2023-01-02T13:37:39.700Z,27.20
2023-01-02T13:40:29.612Z,28.90
2023-01-02T13:43:08.912Z,28.20
2023-01-02T13:45:55.730Z,28.30
2023-01-02T13:48:41.700Z,30.30
2023-01-02T13:51:22.702Z,27.60
2023-01-02T13:53:56.329Z,29.30
2023-01-02T13:56:31.122Z,26.90
2023-01-02T13:59:42.804Z,28.60
2023-01-02T14:02:21.636Z,26.20
2023-01-02T14:04:54.810Z,25.90
2023-01-02T14:07:29.993Z,26.40
2023-01-02T14:10:22.981Z,26.00
2023-01-02T14:13:00.727Z,26.90
2023-01-02T14:15:41.140Z,30.10
2023-01-02T14:18:30.321Z,31.20
2023-01-02T14:21:04.074Z,29.70
2023-01-02T14:24:16.043Z,30.40
2023-01-02T14:26:43.655Z,28.30
2023-01-02T14:29:19.138Z,28.40
2023-01-02T14:32:00.699Z,26.60
2023-01-02T14:34:35.392Z,26.20
2023-01-02T14:37:08.324Z,29.30
2023-01-02T14:39:41.549Z,27.90
2023-01-02T14:42:54.509Z,26.80
2023-01-02T14:45:28.820Z,24.40
2023-01-02T14:48:10.570Z,29.90
2023-01-02T14:50:45.558Z,29.60
2023-01-02T14:53:34.471Z,28.20
2023-01-02T14:56:16.765Z,28.90
2023-01-02T15:01:43.423Z,26.60
2023-01-02T15:04:41.507Z,26.50
2023-01-02T15:07:32.900Z,26.60
2023-01-02T15:10:17.750Z,26.90
2023-01-02T15:13:05.258Z,31.80
2023-01-02T15:15:54.449Z,33.50
2023-01-02T15:18:35.907Z,33.80
2023-01-02T15:21:13.480Z,32.10
2023-01-02T15:23:48.963Z,29.50
2023-01-02T15:26:35.942Z,28.70
2023-01-02T15:29:32.623Z,28.80
2023-01-02T15:32:20.640Z,30.40
2023-01-02T15:34:54.126Z,28.40
2023-01-02T15:37:27.613Z,28.90
2023-01-02T15:40:00.571Z,27.80
2023-01-02T15:42:52.278Z,30.20
2023-01-02T15:45:25.139Z,33.10
2023-01-02T15:47:59.519Z,34.70
2023-01-02T15:50:33.921Z,33.10
2023-01-02T15:53:21.783Z,37.60
2023-01-02T15:55:55.405Z,34.60
2023-01-02T15:58:33.121Z,34.90
2023-01-02T16:01:22.850Z,34.10
2023-01-02T16:04:01.590Z,31.40
2023-01-02T16:06:43.170Z,31.00
2023-01-02T16:09:30.793Z,34.00
2023-01-02T16:12:05.597Z,33.00
2023-01-02T16:14:51.448Z,29.00
2023-01-02T16:17:39.559Z,31.80
2023-01-02T16:20:22.104Z,35.10
2023-01-02T16:23:09.252Z,35.70
2023-01-02T16:25:53.218Z,33.30
2023-01-02T16:28:35.012Z,34.20
2023-01-02T16:31:14.053Z,36.10
2023-01-02T16:33:47.938Z,33.40
2023-01-02T16:36:25.205Z,35.10
2023-01-02T16:39:03.054Z,31.70
2023-01-02T16:42:19.615Z,33.60
2023-01-02T16:44:57.513Z,29.60
2023-01-02T16:47:44.375Z,26.00
2023-01-02T16:50:27.818Z,31.60
2023-01-02T16:53:06.232Z,31.70
2023-01-02T16:55:38.726Z,32.70
2023-01-02T16:58:11.440Z,34.60
2023-01-02T17:00:44.905Z,35.20
2023-01-02T17:03:29.454Z,35.50
2023-01-02T17:06:05.390Z,36.60
2023-01-02T17:08:38.532Z,35.60
2023-01-02T17:11:14.781Z,33.70
2023-01-02T17:13:47.918Z,33.10
2023-01-02T17:16:21.863Z,29.70
2023-01-02T17:18:54.895Z,30.70
2023-01-02T17:21:32.542Z,26.30
2023-01-02T17:24:07.309Z,30.00
2023-01-02T17:26:40.052Z,29.60
2023-01-02T17:29:12.907Z,29.50
2023-01-02T17:31:46.546Z,27.40
2023-01-02T17:34:19.484Z,28.30
2023-01-02T17:36:53.432Z,28.00
2023-01-02T17:39:26.595Z,28.00
2023-01-02T17:41:59.596Z,29.00
2023-01-02T17:44:32.120Z,26.20
2023-01-02T17:47:38.888Z,27.30
2023-01-02T17:49:59.471Z,30.00
2023-01-02T17:52:32.955Z,27.70
2023-01-02T17:55:10.102Z,28.20
2023-01-02T17:57:43.479Z,30.90
2023-01-02T18:00:18.639Z,26.10
2023-01-02T18:02:51.250Z,26.70
2023-01-02T18:05:25.055Z,27.50
2023-01-02T18:07:57.894Z,26.50
2023-01-02T18:10:33.199Z,26.00
2023-01-02T18:13:07.922Z,25.20
2023-01-02T18:15:40.585Z,27.10
2023-01-02T18:18:17.761Z,27.70
2023-01-02T18:20:50.884Z,25.40
2023-01-02T18:23:23.715Z,26.00
2023-01-02T18:25:57.424Z,28.80
2023-01-02T18:28:30.478Z,29.20
2023-01-02T18:31:04.103Z,29.00
2023-01-02T18:33:37.238Z,28.30
2023-01-02T18:36:20.562Z,28.40
2023-01-02T18:39:01.348Z,26.60
2023-01-02T18:41:35.049Z,27.40
2023-01-02T18:44:25.945Z,25.60
2023-01-02T18:47:08.898Z,29.00
2023-01-02T18:49:45.982Z,29.80
2023-01-02T18:52:18.455Z,29.10
2023-01-02T18:55:05.072Z,29.20
2023-01-02T18:57:47.302Z,28.70
2023-01-02T19:00:22.263Z,27.80
2023-01-02T19:03:14.779Z,31.30
2023-01-02T19:05:48.436Z,27.80
2023-01-02T19:08:33.129Z,28.30
2023-01-02T19:11:45.274Z,28.10
2023-01-02T19:14:27.847Z,27.50
2023-01-02T19:19:40.820Z,27.50
2023-01-02T19:22:21.017Z,25.00
2023-01-02T19:24:54.025Z,28.40
2023-01-02T19:27:40.016Z,30.20
2023-01-02T19:30:36.484Z,37.00
2023-01-02T19:33:34.074Z,34.50
2023-01-02T19:36:13.164Z,33.00
2023-01-02T19:38:46.447Z,32.00
2023-01-02T19:41:40.145Z,32.30
2023-01-02T19:44:12.732Z,27.80
2023-01-02T19:46:45.324Z,26.50
2023-01-02T19:49:19.924Z,28.30
2023-01-02T19:51:52.881Z,27.30
2023-01-02T19:54:25.628Z,27.50
2023-01-02T19:56:58.475Z,27.10
2023-01-02T19:59:31.117Z,29.40
2023-01-02T20:02:04.226Z,39.20
2023-01-02T20:04:38.168Z,48.00
2023-01-02T20:07:12.316Z,56.50
2023-01-02T20:09:44.958Z,58.20
2023-01-02T20:12:37.141Z,60.10
2023-01-02T20:15:16.058Z,63.30
2023-01-02T20:17:49.551Z,71.60
2023-01-02T20:20:24.200Z,65.70
2023-01-02T20:22:57.197Z,61.30
2023-01-02T20:25:30.011Z,55.00
2023-01-02T20:28:04.483Z,51.00
2023-01-02T20:30:37.291Z,52.20
2023-01-02T20:33:10.393Z,44.40
2023-01-02T20:35:43.029Z,41.50
2023-01-02T20:38:15.999Z,37.30
2023-01-02T20:40:48.597Z,35.50
2023-01-02T20:43:21.335Z,38.50
2023-01-02T20:45:54.208Z,41.40
2023-01-02T20:48:26.775Z,36.90
2023-01-02T20:51:00.263Z,35.90
2023-01-02T20:53:32.875Z,36.20
2023-01-02T20:56:05.651Z,37.80
2023-01-02T20:58:38.545Z,35.00
2023-01-02T21:01:11.348Z,32.90
2023-01-02T21:03:43.830Z,30.00
2023-01-02T21:06:16.299Z,28.10
2023-01-02T21:08:49.174Z,27.20
2023-01-02T21:11:22.252Z,25.50
2023-01-02T21:13:55.338Z,25.20
2023-01-02T21:16:28.289Z,25.00
2023-01-02T21:19:01.234Z,25.40
2023-01-02T21:21:34.126Z,25.80
2023-01-02T21:24:07.334Z,26.40
2023-01-02T21:26:40.179Z,27.30
2023-01-02T21:29:13.142Z,27.70
2023-01-02T21:31:45.893Z,27.50
2023-01-02T21:34:18.576Z,27.60
2023-01-02T21:36:51.567Z,29.20
2023-01-02T21:39:25.259Z,28.80
2023-01-02T21:42:16.240Z,25.20
2023-01-02T21:44:49.652Z,24.90
2023-01-02T21:47:22.507Z,24.70
2023-01-02T21:49:56.217Z,22.80
2023-01-02T21:52:28.933Z,23.00
2023-01-02T21:55:01.991Z,23.20
2023-01-02T21:58:11.171Z,23.50
2023-01-02T22:00:31.495Z,23.50
2023-01-02T22:03:04.685Z,25.80
2023-01-02T22:05:37.866Z,26.60
2023-01-02T22:08:11.197Z,26.70
2023-01-02T22:10:44.579Z,26.40
2023-01-02T22:13:17.480Z,29.20
2023-01-02T22:15:50.338Z,29.80
2023-01-02T22:18:23.015Z,29.20
2023-01-02T22:20:55.761Z,29.40
2023-01-02T22:23:28.312Z,29.00
2023-01-02T22:26:02.242Z,26.00
2023-01-02T22:28:35.259Z,24.00
2023-01-02T22:31:08.014Z,25.50
2023-01-02T22:33:41.061Z,23.70
2023-01-02T22:36:14.139Z,25.10
2023-01-02T22:39:17.654Z,25.40
2023-01-02T22:41:45.453Z,25.00
2023-01-02T22:44:26.405Z,25.60
2023-01-02T22:46:59.607Z,27.00
2023-01-02T22:49:35.392Z,28.10
2023-01-02T22:52:09.352Z,28.80
2023-01-02T22:54:42.611Z,31.60
2023-01-02T22:57:16.437Z,32.10
2023-01-02T22:59:49.556Z,27.90
2023-01-02T23:02:23.982Z,29.70
2023-01-02T23:04:57.202Z,28.10
2023-01-02T23:07:30.965Z,29.00
2023-01-02T23:10:03.985Z,26.60
2023-01-02T23:12:37.111Z,27.30
2023-01-02T23:15:13.449Z,25.90
2023-01-02T23:18:04.940Z,28.90
2023-01-02T23:20:37.944Z,32.10
2023-01-02T23:23:11.049Z,32.90
2023-01-02T23:25:46.058Z,33.70
2023-01-02T23:28:39.797Z,34.30
2023-01-02T23:31:15.061Z,35.20
2023-01-02T23:33:47.986Z,36.70
2023-01-02T23:36:22.633Z,36.70
2023-01-02T23:38:55.678Z,35.10
2023-01-02T23:41:28.536Z,33.00
2023-01-02T23:44:01.577Z,33.30
2023-01-02T23:46:35.506Z,30.70
2023-01-02T23:49:08.788Z,30.50
2023-01-02T23:51:42.399Z,31.00
2023-01-02T23:54:17.135Z,32.20
2023-01-02T23:56:51.928Z,30.00
2023-01-02T23:59:26.560Z,30.90
